Greenway, Virginia
Current Conditions -  °F | °C
As of 10:52 AM on Saturday 20 Dec 2014 (Local Time) from KIAD Reporting Station
Overcast Overcast  
Wind Chill: 31°   Ceiling: 20000
Heat Index: 31°   Visibility: 10mi
Dew Point: 20°   Wind: 0mph
Humidity: 64%   Direction: NA
Pressure: 30.32"   Gusts: NA
Location:  38.98°N, 77.25°W
Report Text: KIAD 201552Z 00000KT 10SM SCT120 OVC200 M01/M07 A3032 RMK AO2 SLP270 T10061067
Loading
Personal Weather Stations






























Interactive Weather Map New forecast layout! Learn more

10-Day Weather Forecast

Advertisements
Track Severe Weather on mobile